sensor_id;sensor_type;location;lat;lon;timestamp;P1;durP1;ratioP1;P2;durP2;ratioP2
78209;SDS011;67485;48.816;9.930;2023-12-20T00:02:18;2.38;;;1.33;;
78209;SDS011;67485;48.816;9.930;2023-12-20T00:04:44;2.37;;;1.23;;
78209;SDS011;67485;48.816;9.930;2023-12-20T00:07:09;2.90;;;1.15;;
78209;SDS011;67485;48.816;9.930;2023-12-20T00:09:35;2.40;;;1.17;;
78209;SDS011;67485;48.816;9.930;2023-12-20T00:12:01;2.40;;;1.20;;
78209;SDS011;67485;48.816;9.930;2023-12-20T00:14:26;2.20;;;1.10;;
78209;SDS011;67485;48.816;9.930;2023-12-20T00:16:52;2.83;;;1.10;;
78209;SDS011;67485;48.816;9.930;2023-12-20T00:19:18;3.13;;;1.10;;
78209;SDS011;67485;48.816;9.930;2023-12-20T00:21:43;1.87;;;0.90;;
78209;SDS011;67485;48.816;9.930;2023-12-20T00:24:09;2.60;;;0.93;;
78209;SDS011;67485;48.816;9.930;2023-12-20T00:26:34;1.87;;;1.03;;
78209;SDS011;67485;48.816;9.930;2023-12-20T00:29:00;2.35;;;1.00;;
78209;SDS011;67485;48.816;9.930;2023-12-20T00:31:26;1.83;;;0.83;;
78209;SDS011;67485;48.816;9.930;2023-12-20T00:33:51;2.40;;;0.60;;
78209;SDS011;67485;48.816;9.930;2023-12-20T00:36:17;3.88;;;0.98;;
78209;SDS011;67485;48.816;9.930;2023-12-20T00:38:43;4.70;;;0.83;;
78209;SDS011;67485;48.816;9.930;2023-12-20T00:41:08;1.58;;;0.80;;
78209;SDS011;67485;48.816;9.930;2023-12-20T00:43:34;1.77;;;0.87;;
78209;SDS011;67485;48.816;9.930;2023-12-20T00:46:00;1.42;;;0.80;;
78209;SDS011;67485;48.816;9.930;2023-12-20T00:48:25;2.80;;;0.70;;
78209;SDS011;67485;48.816;9.930;2023-12-20T00:50:56;2.92;;;0.93;;
78209;SDS011;67485;48.816;9.930;2023-12-20T00:53:22;2.65;;;0.93;;
78209;SDS011;67485;48.816;9.930;2023-12-20T00:55:48;1.77;;;0.83;;
78209;SDS011;67485;48.816;9.930;2023-12-20T00:58:15;2.60;;;1.00;;
78209;SDS011;67485;48.816;9.930;2023-12-20T01:00:41;1.45;;;0.75;;
78209;SDS011;67485;48.816;9.930;2023-12-20T01:03:09;1.70;;;0.90;;
78209;SDS011;67485;48.816;9.930;2023-12-20T01:05:35;3.05;;;1.10;;
78209;SDS011;67485;48.816;9.930;2023-12-20T01:08:01;2.03;;;1.00;;
78209;SDS011;67485;48.816;9.930;2023-12-20T01:10:28;2.03;;;1.00;;
78209;SDS011;67485;48.816;9.930;2023-12-20T01:12:54;1.73;;;0.80;;
78209;SDS011;67485;48.816;9.930;2023-12-20T01:15:20;2.13;;;1.00;;
78209;SDS011;67485;48.816;9.930;2023-12-20T01:17:46;1.80;;;0.90;;
78209;SDS011;67485;48.816;9.930;2023-12-20T01:20:12;2.80;;;1.10;;
78209;SDS011;67485;48.816;9.930;2023-12-20T01:22:38;1.58;;;0.70;;
78209;SDS011;67485;48.816;9.930;2023-12-20T01:25:04;1.60;;;0.80;;
78209;SDS011;67485;48.816;9.930;2023-12-20T01:27:30;1.63;;;0.80;;
78209;SDS011;67485;48.816;9.930;2023-12-20T01:29:56;2.10;;;0.85;;
78209;SDS011;67485;48.816;9.930;2023-12-20T01:32:22;2.10;;;1.00;;
78209;SDS011;67485;48.816;9.930;2023-12-20T01:34:48;2.17;;;0.80;;
78209;SDS011;67485;48.816;9.930;2023-12-20T01:37:13;1.70;;;0.80;;
78209;SDS011;67485;48.816;9.930;2023-12-20T01:39:39;2.05;;;0.80;;
78209;SDS011;67485;48.816;9.930;2023-12-20T01:42:05;2.63;;;0.83;;
78209;SDS011;67485;48.816;9.930;2023-12-20T01:44:30;1.83;;;0.95;;
78209;SDS011;67485;48.816;9.930;2023-12-20T01:46:56;1.93;;;0.80;;
78209;SDS011;67485;48.816;9.930;2023-12-20T01:49:22;2.05;;;0.80;;
78209;SDS011;67485;48.816;9.930;2023-12-20T01:51:49;3.75;;;0.93;;
78209;SDS011;67485;48.816;9.930;2023-12-20T01:54:15;2.40;;;0.80;;
78209;SDS011;67485;48.816;9.930;2023-12-20T01:56:41;1.30;;;0.70;;
78209;SDS011;67485;48.816;9.930;2023-12-20T01:59:07;1.40;;;0.60;;
78209;SDS011;67485;48.816;9.930;2023-12-20T02:01:34;1.88;;;0.60;;
78209;SDS011;67485;48.816;9.930;2023-12-20T02:04:01;1.85;;;0.73;;
78209;SDS011;67485;48.816;9.930;2023-12-20T02:06:30;2.33;;;0.80;;
78209;SDS011;67485;48.816;9.930;2023-12-20T02:08:59;1.58;;;0.77;;
78209;SDS011;67485;48.816;9.930;2023-12-20T02:11:25;1.93;;;0.60;;
78209;SDS011;67485;48.816;9.930;2023-12-20T02:13:52;5.68;;;0.60;;
78209;SDS011;67485;48.816;9.930;2023-12-20T02:16:18;2.03;;;0.57;;
78209;SDS011;67485;48.816;9.930;2023-12-20T02:18:44;1.35;;;0.50;;
78209;SDS011;67485;48.816;9.930;2023-12-20T02:21:10;1.80;;;0.80;;
78209;SDS011;67485;48.816;9.930;2023-12-20T02:23:36;1.90;;;0.75;;
78209;SDS011;67485;48.816;9.930;2023-12-20T02:26:02;2.88;;;0.90;;
78209;SDS011;67485;48.816;9.930;2023-12-20T02:28:29;2.40;;;0.63;;
78209;SDS011;67485;48.816;9.930;2023-12-20T02:30:57;1.40;;;0.70;;
78209;SDS011;67485;48.816;9.930;2023-12-20T02:33:23;1.33;;;0.60;;
78209;SDS011;67485;48.816;9.930;2023-12-20T02:35:48;2.70;;;0.70;;
78209;SDS011;67485;48.816;9.930;2023-12-20T02:38:14;1.73;;;0.77;;
78209;SDS011;67485;48.816;9.930;2023-12-20T02:40:40;1.50;;;0.60;;
78209;SDS011;67485;48.816;9.930;2023-12-20T02:43:06;1.37;;;0.50;;
78209;SDS011;67485;48.816;9.930;2023-12-20T02:45:31;1.55;;;0.68;;
78209;SDS011;67485;48.816;9.930;2023-12-20T02:47:57;2.03;;;0.70;;
78209;SDS011;67485;48.816;9.930;2023-12-20T02:50:23;1.05;;;0.60;;
78209;SDS011;67485;48.816;9.930;2023-12-20T02:52:49;2.07;;;0.90;;
78209;SDS011;67485;48.816;9.930;2023-12-20T02:55:15;1.30;;;0.63;;
78209;SDS011;67485;48.816;9.930;2023-12-20T02:57:40;1.63;;;0.70;;
78209;SDS011;67485;48.816;9.930;2023-12-20T03:00:10;1.40;;;0.70;;
78209;SDS011;67485;48.816;9.930;2023-12-20T03:02:36;2.75;;;0.80;;
78209;SDS011;67485;48.816;9.930;2023-12-20T03:05:02;1.73;;;0.70;;
78209;SDS011;67485;48.816;9.930;2023-12-20T03:07:28;1.67;;;0.80;;
78209;SDS011;67485;48.816;9.930;2023-12-20T03:09:54;1.27;;;0.60;;
78209;SDS011;67485;48.816;9.930;2023-12-20T03:12:20;0.97;;;0.60;;
78209;SDS011;67485;48.816;9.930;2023-12-20T03:14:46;1.50;;;0.70;;
78209;SDS011;67485;48.816;9.930;2023-12-20T03:17:11;1.33;;;0.60;;
78209;SDS011;67485;48.816;9.930;2023-12-20T03:19:37;1.47;;;0.60;;
78209;SDS011;67485;48.816;9.930;2023-12-20T03:22:03;1.30;;;0.73;;
78209;SDS011;67485;48.816;9.930;2023-12-20T03:24:28;4.57;;;0.90;;
78209;SDS011;67485;48.816;9.930;2023-12-20T03:26:54;1.70;;;0.80;;
78209;SDS011;67485;48.816;9.930;2023-12-20T03:29:20;3.08;;;0.70;;
78209;SDS011;67485;48.816;9.930;2023-12-20T03:31:45;1.30;;;0.70;;
78209;SDS011;67485;48.816;9.930;2023-12-20T03:34:11;1.27;;;0.60;;
78209;SDS011;67485;48.816;9.930;2023-12-20T03:36:37;1.23;;;0.63;;
78209;SDS011;67485;48.816;9.930;2023-12-20T03:39:03;2.53;;;0.80;;
78209;SDS011;67485;48.816;9.930;2023-12-20T03:41:28;1.40;;;0.70;;
78209;SDS011;67485;48.816;9.930;2023-12-20T03:43:54;2.10;;;0.70;;
78209;SDS011;67485;48.816;9.930;2023-12-20T03:46:20;2.13;;;0.88;;
78209;SDS011;67485;48.816;9.930;2023-12-20T03:48:46;1.37;;;0.90;;
78209;SDS011;67485;48.816;9.930;2023-12-20T03:51:13;1.52;;;0.90;;
78209;SDS011;67485;48.816;9.930;2023-12-20T03:53:38;1.45;;;0.75;;
78209;SDS011;67485;48.816;9.930;2023-12-20T03:56:06;2.10;;;0.83;;
78209;SDS011;67485;48.816;9.930;2023-12-20T03:58:31;1.05;;;0.60;;
78209;SDS011;67485;48.816;9.930;2023-12-20T04:00:57;1.40;;;0.50;;
78209;SDS011;67485;48.816;9.930;2023-12-20T04:03:23;1.57;;;0.70;;
78209;SDS011;67485;48.816;9.930;2023-12-20T04:05:49;1.48;;;0.70;;
78209;SDS011;67485;48.816;9.930;2023-12-20T04:08:14;2.07;;;0.60;;
78209;SDS011;67485;48.816;9.930;2023-12-20T04:10:40;1.40;;;0.57;;
78209;SDS011;67485;48.816;9.930;2023-12-20T04:13:06;1.37;;;0.60;;
78209;SDS011;67485;48.816;9.930;2023-12-20T04:15:32;1.38;;;0.50;;
78209;SDS011;67485;48.816;9.930;2023-12-20T04:17:57;1.30;;;0.60;;
78209;SDS011;67485;48.816;9.930;2023-12-20T04:20:23;0.80;;;0.40;;
78209;SDS011;67485;48.816;9.930;2023-12-20T04:22:49;0.70;;;0.40;;
78209;SDS011;67485;48.816;9.930;2023-12-20T04:25:15;0.90;;;0.50;;
78209;SDS011;67485;48.816;9.930;2023-12-20T04:27:41;0.95;;;0.50;;
78209;SDS011;67485;48.816;9.930;2023-12-20T04:30:06;1.07;;;0.43;;
78209;SDS011;67485;48.816;9.930;2023-12-20T04:32:32;0.80;;;0.40;;
78209;SDS011;67485;48.816;9.930;2023-12-20T04:34:58;1.00;;;0.45;;
78209;SDS011;67485;48.816;9.930;2023-12-20T04:37:24;0.87;;;0.47;;
78209;SDS011;67485;48.816;9.930;2023-12-20T04:39:50;0.90;;;0.50;;
78209;SDS011;67485;48.816;9.930;2023-12-20T04:42:16;1.73;;;0.40;;
78209;SDS011;67485;48.816;9.930;2023-12-20T04:44:42;0.90;;;0.40;;
78209;SDS011;67485;48.816;9.930;2023-12-20T04:47:09;0.90;;;0.40;;
78209;SDS011;67485;48.816;9.930;2023-12-20T04:49:34;0.65;;;0.40;;
78209;SDS011;67485;48.816;9.930;2023-12-20T04:52:00;0.70;;;0.40;;
78209;SDS011;67485;48.816;9.930;2023-12-20T04:54:26;0.80;;;0.43;;
78209;SDS011;67485;48.816;9.930;2023-12-20T04:56:52;0.77;;;0.40;;
78209;SDS011;67485;48.816;9.930;2023-12-20T04:59:17;0.70;;;0.40;;
78209;SDS011;67485;48.816;9.930;2023-12-20T05:01:43;0.67;;;0.40;;
78209;SDS011;67485;48.816;9.930;2023-12-20T05:04:09;0.73;;;0.40;;
78209;SDS011;67485;48.816;9.930;2023-12-20T05:06:34;1.00;;;0.40;;
78209;SDS011;67485;48.816;9.930;2023-12-20T05:09:00;0.80;;;0.50;;
78209;SDS011;67485;48.816;9.930;2023-12-20T05:11:26;1.00;;;0.47;;
78209;SDS011;67485;48.816;9.930;2023-12-20T05:13:52;0.80;;;0.50;;
78209;SDS011;67485;48.816;9.930;2023-12-20T05:16:17;0.70;;;0.40;;
78209;SDS011;67485;48.816;9.930;2023-12-20T05:18:43;0.82;;;0.40;;
78209;SDS011;67485;48.816;9.930;2023-12-20T05:21:10;1.80;;;0.40;;
78209;SDS011;67485;48.816;9.930;2023-12-20T05:23:36;0.73;;;0.40;;
78209;SDS011;67485;48.816;9.930;2023-12-20T05:26:02;0.68;;;0.40;;
78209;SDS011;67485;48.816;9.930;2023-12-20T05:28:27;0.90;;;0.40;;
78209;SDS011;67485;48.816;9.930;2023-12-20T05:30:53;0.85;;;0.50;;
78209;SDS011;67485;48.816;9.930;2023-12-20T05:33:19;1.00;;;0.40;;
78209;SDS011;67485;48.816;9.930;2023-12-20T05:35:45;0.80;;;0.40;;
78209;SDS011;67485;48.816;9.930;2023-12-20T05:38:11;0.90;;;0.40;;
78209;SDS011;67485;48.816;9.930;2023-12-20T05:40:37;0.80;;;0.50;;
78209;SDS011;67485;48.816;9.930;2023-12-20T05:43:03;0.85;;;0.50;;
78209;SDS011;67485;48.816;9.930;2023-12-20T05:45:29;0.80;;;0.40;;
78209;SDS011;67485;48.816;9.930;2023-12-20T05:47:57;1.35;;;0.57;;
78209;SDS011;67485;48.816;9.930;2023-12-20T05:50:24;0.63;;;0.40;;
78209;SDS011;67485;48.816;9.930;2023-12-20T05:52:49;2.25;;;0.50;;
78209;SDS011;67485;48.816;9.930;2023-12-20T05:55:15;1.10;;;0.50;;
78209;SDS011;67485;48.816;9.930;2023-12-20T05:57:41;1.90;;;0.80;;
78209;SDS011;67485;48.816;9.930;2023-12-20T06:00:08;1.88;;;0.88;;
78209;SDS011;67485;48.816;9.930;2023-12-20T06:02:39;1.58;;;0.80;;
78209;SDS011;67485;48.816;9.930;2023-12-20T06:05:05;2.58;;;0.80;;
78209;SDS011;67485;48.816;9.930;2023-12-20T06:07:31;2.80;;;1.10;;
78209;SDS011;67485;48.816;9.930;2023-12-20T06:09:57;1.80;;;0.90;;
78209;SDS011;67485;48.816;9.930;2023-12-20T06:12:22;1.23;;;0.68;;
78209;SDS011;67485;48.816;9.930;2023-12-20T06:14:48;1.00;;;0.60;;
78209;SDS011;67485;48.816;9.930;2023-12-20T06:17:14;2.40;;;0.70;;
78209;SDS011;67485;48.816;9.930;2023-12-20T06:19:40;1.20;;;0.70;;
78209;SDS011;67485;48.816;9.930;2023-12-20T06:22:07;1.20;;;0.65;;
78209;SDS011;67485;48.816;9.930;2023-12-20T06:24:33;1.07;;;0.50;;
78209;SDS011;67485;48.816;9.930;2023-12-20T06:26:59;0.88;;;0.40;;
78209;SDS011;67485;48.816;9.930;2023-12-20T06:29:26;1.25;;;0.50;;
78209;SDS011;67485;48.816;9.930;2023-12-20T06:31:52;1.10;;;0.60;;
78209;SDS011;67485;48.816;9.930;2023-12-20T06:34:17;2.03;;;0.60;;
78209;SDS011;67485;48.816;9.930;2023-12-20T06:36:43;0.93;;;0.50;;
78209;SDS011;67485;48.816;9.930;2023-12-20T06:39:09;1.20;;;0.65;;
78209;SDS011;67485;48.816;9.930;2023-12-20T06:41:38;1.20;;;0.70;;
78209;SDS011;67485;48.816;9.930;2023-12-20T06:44:04;3.53;;;1.25;;
78209;SDS011;67485;48.816;9.930;2023-12-20T06:46:30;1.60;;;0.75;;
78209;SDS011;67485;48.816;9.930;2023-12-20T06:52:17;2.38;;;0.80;;
78209;SDS011;67485;48.816;9.930;2023-12-20T06:54:51;1.30;;;0.60;;
78209;SDS011;67485;48.816;9.930;2023-12-20T06:57:59;1.58;;;0.60;;
78209;SDS011;67485;48.816;9.930;2023-12-20T07:00:26;1.30;;;0.70;;
78209;SDS011;67485;48.816;9.930;2023-12-20T07:02:51;1.35;;;0.73;;
78209;SDS011;67485;48.816;9.930;2023-12-20T07:05:17;1.30;;;0.70;;
78209;SDS011;67485;48.816;9.930;2023-12-20T07:07:48;1.45;;;0.65;;
78209;SDS011;67485;48.816;9.930;2023-12-20T07:10:13;1.25;;;0.60;;
78209;SDS011;67485;48.816;9.930;2023-12-20T07:12:39;1.00;;;0.60;;
78209;SDS011;67485;48.816;9.930;2023-12-20T07:15:05;1.27;;;0.63;;
78209;SDS011;67485;48.816;9.930;2023-12-20T07:17:32;3.60;;;0.65;;
78209;SDS011;67485;48.816;9.930;2023-12-20T07:19:59;0.90;;;0.50;;
78209;SDS011;67485;48.816;9.930;2023-12-20T07:22:31;1.48;;;0.60;;
78209;SDS011;67485;48.816;9.930;2023-12-20T07:24:58;1.40;;;0.68;;
78209;SDS011;67485;48.816;9.930;2023-12-20T07:27:25;1.20;;;0.70;;
78209;SDS011;67485;48.816;9.930;2023-12-20T07:29:51;1.20;;;0.60;;
78209;SDS011;67485;48.816;9.930;2023-12-20T07:32:17;1.20;;;0.60;;
78209;SDS011;67485;48.816;9.930;2023-12-20T07:34:43;1.30;;;0.60;;
78209;SDS011;67485;48.816;9.930;2023-12-20T07:37:09;1.40;;;0.70;;
78209;SDS011;67485;48.816;9.930;2023-12-20T07:39:39;1.47;;;0.77;;
78209;SDS011;67485;48.816;9.930;2023-12-20T07:42:05;1.83;;;0.88;;
78209;SDS011;67485;48.816;9.930;2023-12-20T07:44:32;1.63;;;0.80;;
78209;SDS011;67485;48.816;9.930;2023-12-20T07:46:58;2.63;;;0.90;;
78209;SDS011;67485;48.816;9.930;2023-12-20T07:49:24;1.43;;;0.60;;
78209;SDS011;67485;48.816;9.930;2023-12-20T07:51:49;2.70;;;0.85;;
78209;SDS011;67485;48.816;9.930;2023-12-20T07:54:16;2.63;;;0.97;;
78209;SDS011;67485;48.816;9.930;2023-12-20T07:56:41;1.40;;;0.80;;
78209;SDS011;67485;48.816;9.930;2023-12-20T07:59:08;1.50;;;0.75;;
78209;SDS011;67485;48.816;9.930;2023-12-20T08:01:34;1.63;;;1.00;;
78209;SDS011;67485;48.816;9.930;2023-12-20T08:04:00;1.80;;;1.20;;
78209;SDS011;67485;48.816;9.930;2023-12-20T08:06:26;2.65;;;1.33;;
78209;SDS011;67485;48.816;9.930;2023-12-20T08:08:51;2.43;;;1.53;;
78209;SDS011;67485;48.816;9.930;2023-12-20T08:11:17;1.80;;;1.10;;
78209;SDS011;67485;48.816;9.930;2023-12-20T08:13:43;2.40;;;1.40;;
78209;SDS011;67485;48.816;9.930;2023-12-20T08:16:09;2.00;;;1.23;;
78209;SDS011;67485;48.816;9.930;2023-12-20T08:18:35;1.75;;;1.20;;
78209;SDS011;67485;48.816;9.930;2023-12-20T08:21:01;1.95;;;1.27;;
78209;SDS011;67485;48.816;9.930;2023-12-20T08:23:27;2.40;;;1.50;;
78209;SDS011;67485;48.816;9.930;2023-12-20T08:25:53;2.20;;;1.20;;
78209;SDS011;67485;48.816;9.930;2023-12-20T08:28:19;2.38;;;1.30;;
78209;SDS011;67485;48.816;9.930;2023-12-20T08:30:45;2.75;;;1.23;;
78209;SDS011;67485;48.816;9.930;2023-12-20T08:33:11;2.33;;;1.20;;
78209;SDS011;67485;48.816;9.930;2023-12-20T08:35:41;1.88;;;0.90;;
78209;SDS011;67485;48.816;9.930;2023-12-20T08:38:07;1.88;;;1.23;;
78209;SDS011;67485;48.816;9.930;2023-12-20T08:40:33;2.25;;;0.93;;
78209;SDS011;67485;48.816;9.930;2023-12-20T08:42:59;1.50;;;0.95;;
78209;SDS011;67485;48.816;9.930;2023-12-20T08:45:25;2.53;;;0.90;;
78209;SDS011;67485;48.816;9.930;2023-12-20T08:47:52;2.58;;;1.30;;
78209;SDS011;67485;48.816;9.930;2023-12-20T08:50:17;3.33;;;1.60;;
78209;SDS011;67485;48.816;9.930;2023-12-20T08:52:43;1.83;;;1.37;;
78209;SDS011;67485;48.816;9.930;2023-12-20T08:55:10;2.25;;;1.42;;
78209;SDS011;67485;48.816;9.930;2023-12-20T08:57:47;2.65;;;1.58;;
78209;SDS011;67485;48.816;9.930;2023-12-20T09:00:22;2.83;;;1.70;;
78209;SDS011;67485;48.816;9.930;2023-12-20T09:11:52;2.17;;;1.50;;
78209;SDS011;67485;48.816;9.930;2023-12-20T09:14:57;2.72;;;1.80;;
78209;SDS011;67485;48.816;9.930;2023-12-20T09:18:13;4.03;;;1.90;;
78209;SDS011;67485;48.816;9.930;2023-12-20T09:20:56;2.90;;;1.77;;
78209;SDS011;67485;48.816;9.930;2023-12-20T09:24:18;3.00;;;1.75;;
78209;SDS011;67485;48.816;9.930;2023-12-20T09:27:09;2.80;;;1.70;;
78209;SDS011;67485;48.816;9.930;2023-12-20T09:33:32;3.60;;;2.35;;
78209;SDS011;67485;48.816;9.930;2023-12-20T09:36:46;4.00;;;1.97;;
78209;SDS011;67485;48.816;9.930;2023-12-20T09:39:45;3.28;;;2.00;;
78209;SDS011;67485;48.816;9.930;2023-12-20T09:42:58;3.05;;;1.60;;
78209;SDS011;67485;48.816;9.930;2023-12-20T09:45:34;2.58;;;1.60;;
78209;SDS011;67485;48.816;9.930;2023-12-20T09:48:35;3.47;;;1.85;;
78209;SDS011;67485;48.816;9.930;2023-12-20T09:51:28;3.63;;;1.90;;
78209;SDS011;67485;48.816;9.930;2023-12-20T09:55:04;3.38;;;1.70;;
78209;SDS011;67485;48.816;9.930;2023-12-20T09:58:16;3.42;;;1.90;;
78209;SDS011;67485;48.816;9.930;2023-12-20T10:01:29;4.43;;;1.80;;
78209;SDS011;67485;48.816;9.930;2023-12-20T10:04:51;3.17;;;1.52;;
78209;SDS011;67485;48.816;9.930;2023-12-20T10:07:29;3.77;;;1.60;;
78209;SDS011;67485;48.816;9.930;2023-12-20T10:10:21;3.22;;;1.38;;
78209;SDS011;67485;48.816;9.930;2023-12-20T10:13:09;3.67;;;1.48;;
78209;SDS011;67485;48.816;9.930;2023-12-20T10:16:01;4.70;;;1.58;;
78209;SDS011;67485;48.816;9.930;2023-12-20T10:19:07;2.75;;;1.50;;
78209;SDS011;67485;48.816;9.930;2023-12-20T10:21:59;4.20;;;1.70;;
78209;SDS011;67485;48.816;9.930;2023-12-20T10:24:42;7.18;;;1.63;;
78209;SDS011;67485;48.816;9.930;2023-12-20T10:27:13;3.28;;;1.45;;
78209;SDS011;67485;48.816;9.930;2023-12-20T10:30:03;4.30;;;1.45;;
78209;SDS011;67485;48.816;9.930;2023-12-20T10:32:34;3.38;;;1.60;;
78209;SDS011;67485;48.816;9.930;2023-12-20T10:35:03;4.33;;;1.30;;
78209;SDS011;67485;48.816;9.930;2023-12-20T10:37:36;2.88;;;1.27;;
78209;SDS011;67485;48.816;9.930;2023-12-20T10:40:04;4.28;;;1.70;;
78209;SDS011;67485;48.816;9.930;2023-12-20T10:42:35;5.30;;;1.80;;
78209;SDS011;67485;48.816;9.930;2023-12-20T10:45:04;4.15;;;1.80;;
78209;SDS011;67485;48.816;9.930;2023-12-20T10:47:32;3.33;;;1.87;;
78209;SDS011;67485;48.816;9.930;2023-12-20T10:50:00;3.95;;;1.90;;
78209;SDS011;67485;48.816;9.930;2023-12-20T10:52:27;8.70;;;3.75;;
78209;SDS011;67485;48.816;9.930;2023-12-20T10:54:54;5.97;;;2.83;;
78209;SDS011;67485;48.816;9.930;2023-12-20T10:57:23;7.57;;;2.97;;
78209;SDS011;67485;48.816;9.930;2023-12-20T11:00:17;9.57;;;3.40;;
78209;SDS011;67485;48.816;9.930;2023-12-20T11:02:52;9.18;;;3.47;;
78209;SDS011;67485;48.816;9.930;2023-12-20T11:07:51;13.40;;;4.47;;
78209;SDS011;67485;48.816;9.930;2023-12-20T11:10:40;8.85;;;2.83;;
78209;SDS011;67485;48.816;9.930;2023-12-20T11:13:20;8.63;;;2.90;;
78209;SDS011;67485;48.816;9.930;2023-12-20T11:15:50;8.90;;;3.22;;
78209;SDS011;67485;48.816;9.930;2023-12-20T11:18:17;10.65;;;3.38;;
78209;SDS011;67485;48.816;9.930;2023-12-20T11:20:44;8.00;;;2.60;;
78209;SDS011;67485;48.816;9.930;2023-12-20T11:23:10;13.30;;;3.58;;
78209;SDS011;67485;48.816;9.930;2023-12-20T11:25:45;11.90;;;2.73;;
78209;SDS011;67485;48.816;9.930;2023-12-20T11:28:20;10.15;;;2.78;;
78209;SDS011;67485;48.816;9.930;2023-12-20T11:30:48;7.10;;;1.50;;
78209;SDS011;67485;48.816;9.930;2023-12-20T11:33:24;5.32;;;1.30;;
78209;SDS011;67485;48.816;9.930;2023-12-20T11:35:51;2.88;;;0.98;;
78209;SDS011;67485;48.816;9.930;2023-12-20T11:38:19;3.57;;;1.20;;
78209;SDS011;67485;48.816;9.930;2023-12-20T11:40:50;6.25;;;1.23;;
78209;SDS011;67485;48.816;9.930;2023-12-20T11:44:47;5.32;;;0.82;;
78209;SDS011;67485;48.816;9.930;2023-12-20T11:47:45;4.18;;;0.75;;
78209;SDS011;67485;48.816;9.930;2023-12-20T11:50:45;5.28;;;0.98;;
78209;SDS011;67485;48.816;9.930;2023-12-20T11:53:31;3.50;;;0.80;;
78209;SDS011;67485;48.816;9.930;2023-12-20T11:56:49;3.88;;;0.82;;
78209;SDS011;67485;48.816;9.930;2023-12-20T12:00:20;4.35;;;1.00;;
78209;SDS011;67485;48.816;9.930;2023-12-20T12:04:05;4.47;;;1.00;;
78209;SDS011;67485;48.816;9.930;2023-12-20T12:06:57;4.22;;;1.00;;
78209;SDS011;67485;48.816;9.930;2023-12-20T12:10:15;6.00;;;0.70;;
78209;SDS011;67485;48.816;9.930;2023-12-20T12:12:42;7.20;;;0.80;;
78209;SDS011;67485;48.816;9.930;2023-12-20T12:15:11;3.45;;;0.80;;
78209;SDS011;67485;48.816;9.930;2023-12-20T12:17:39;4.75;;;0.82;;
78209;SDS011;67485;48.816;9.930;2023-12-20T12:36:12;5.40;;;1.00;;
78209;SDS011;67485;48.816;9.930;2023-12-20T12:39:24;6.03;;;0.63;;
78209;SDS011;67485;48.816;9.930;2023-12-20T12:47:53;4.55;;;0.60;;
78209;SDS011;67485;48.816;9.930;2023-12-20T12:51:37;3.22;;;0.77;;
78209;SDS011;67485;48.816;9.930;2023-12-20T12:55:53;2.42;;;0.73;;
78209;SDS011;67485;48.816;9.930;2023-12-20T13:00:09;4.97;;;0.80;;
78209;SDS011;67485;48.816;9.930;2023-12-20T13:04:31;1.33;;;0.80;;
78209;SDS011;67485;48.816;9.930;2023-12-20T13:08:28;3.25;;;1.02;;
78209;SDS011;67485;48.816;9.930;2023-12-20T13:11:38;5.38;;;0.80;;
78209;SDS011;67485;48.816;9.930;2023-12-20T13:14:38;3.72;;;0.90;;
78209;SDS011;67485;48.816;9.930;2023-12-20T13:17:06;4.82;;;1.20;;
78209;SDS011;67485;48.816;9.930;2023-12-20T13:19:32;2.17;;;0.70;;
78209;SDS011;67485;48.816;9.930;2023-12-20T13:21:57;5.30;;;0.98;;
78209;SDS011;67485;48.816;9.930;2023-12-20T13:24:23;4.78;;;0.93;;
78209;SDS011;67485;48.816;9.930;2023-12-20T13:26:49;4.50;;;0.63;;
78209;SDS011;67485;48.816;9.930;2023-12-20T13:29:15;2.45;;;0.73;;
78209;SDS011;67485;48.816;9.930;2023-12-20T13:31:42;4.50;;;0.77;;
78209;SDS011;67485;48.816;9.930;2023-12-20T13:34:08;4.97;;;0.80;;
78209;SDS011;67485;48.816;9.930;2023-12-20T13:36:34;4.80;;;0.90;;
78209;SDS011;67485;48.816;9.930;2023-12-20T13:39:01;5.72;;;1.00;;
78209;SDS011;67485;48.816;9.930;2023-12-20T13:41:29;4.35;;;0.80;;
78209;SDS011;67485;48.816;9.930;2023-12-20T13:43:55;5.43;;;1.00;;
78209;SDS011;67485;48.816;9.930;2023-12-20T13:46:21;5.63;;;1.07;;
78209;SDS011;67485;48.816;9.930;2023-12-20T13:48:47;6.18;;;1.15;;
78209;SDS011;67485;48.816;9.930;2023-12-20T13:51:12;6.97;;;1.30;;
78209;SDS011;67485;48.816;9.930;2023-12-20T13:53:38;2.10;;;0.80;;
78209;SDS011;67485;48.816;9.930;2023-12-20T13:56:04;6.17;;;1.20;;
78209;SDS011;67485;48.816;9.930;2023-12-20T13:58:30;4.20;;;0.90;;
78209;SDS011;67485;48.816;9.930;2023-12-20T14:00:56;5.43;;;1.02;;
78209;SDS011;67485;48.816;9.930;2023-12-20T14:03:22;3.88;;;0.80;;
78209;SDS011;67485;48.816;9.930;2023-12-20T14:05:47;7.57;;;1.20;;
78209;SDS011;67485;48.816;9.930;2023-12-20T14:08:13;6.45;;;1.55;;
78209;SDS011;67485;48.816;9.930;2023-12-20T14:10:40;4.65;;;1.55;;
78209;SDS011;67485;48.816;9.930;2023-12-20T14:13:06;5.87;;;1.50;;
78209;SDS011;67485;48.816;9.930;2023-12-20T14:15:32;3.30;;;0.88;;
78209;SDS011;67485;48.816;9.930;2023-12-20T14:18:04;6.18;;;1.10;;
78209;SDS011;67485;48.816;9.930;2023-12-20T14:20:31;4.57;;;1.30;;
78209;SDS011;67485;48.816;9.930;2023-12-20T14:23:03;3.50;;;1.30;;
78209;SDS011;67485;48.816;9.930;2023-12-20T14:25:29;2.60;;;1.27;;
78209;SDS011;67485;48.816;9.930;2023-12-20T14:27:56;5.97;;;1.23;;
78209;SDS011;67485;48.816;9.930;2023-12-20T14:30:23;5.22;;;1.02;;
78209;SDS011;67485;48.816;9.930;2023-12-20T14:32:49;4.70;;;1.20;;
78209;SDS011;67485;48.816;9.930;2023-12-20T14:35:18;6.47;;;1.30;;
78209;SDS011;67485;48.816;9.930;2023-12-20T14:37:45;6.57;;;1.60;;
78209;SDS011;67485;48.816;9.930;2023-12-20T14:40:13;5.45;;;1.20;;
78209;SDS011;67485;48.816;9.930;2023-12-20T14:42:44;4.28;;;1.30;;
78209;SDS011;67485;48.816;9.930;2023-12-20T14:45:13;7.17;;;1.50;;
78209;SDS011;67485;48.816;9.930;2023-12-20T14:47:45;3.30;;;1.13;;
78209;SDS011;67485;48.816;9.930;2023-12-20T14:50:20;3.58;;;1.05;;
78209;SDS011;67485;48.816;9.930;2023-12-20T14:52:59;7.22;;;1.00;;
78209;SDS011;67485;48.816;9.930;2023-12-20T14:55:28;5.65;;;1.40;;
78209;SDS011;67485;48.816;9.930;2023-12-20T14:57:57;7.50;;;1.85;;
78209;SDS011;67485;48.816;9.930;2023-12-20T15:00:28;8.13;;;1.80;;
78209;SDS011;67485;48.816;9.930;2023-12-20T15:03:08;7.13;;;2.10;;
78209;SDS011;67485;48.816;9.930;2023-12-20T15:05:39;6.25;;;1.90;;
78209;SDS011;67485;48.816;9.930;2023-12-20T15:08:21;5.72;;;1.48;;
78209;SDS011;67485;48.816;9.930;2023-12-20T15:10:49;4.22;;;1.30;;
78209;SDS011;67485;48.816;9.930;2023-12-20T15:13:31;4.10;;;1.70;;
78209;SDS011;67485;48.816;9.930;2023-12-20T15:16:10;11.75;;;2.70;;
78209;SDS011;67485;48.816;9.930;2023-12-20T15:18:40;10.57;;;2.58;;
78209;SDS011;67485;48.816;9.930;2023-12-20T15:21:17;8.88;;;2.10;;
78209;SDS011;67485;48.816;9.930;2023-12-20T15:23:58;5.80;;;1.97;;
78209;SDS011;67485;48.816;9.930;2023-12-20T15:26:43;7.03;;;1.58;;
78209;SDS011;67485;48.816;9.930;2023-12-20T15:29:40;7.47;;;1.70;;
78209;SDS011;67485;48.816;9.930;2023-12-20T15:32:05;5.50;;;2.10;;
78209;SDS011;67485;48.816;9.930;2023-12-20T15:34:33;7.93;;;1.70;;
78209;SDS011;67485;48.816;9.930;2023-12-20T15:36:59;2.60;;;1.15;;
78209;SDS011;67485;48.816;9.930;2023-12-20T15:39:25;5.43;;;1.10;;
78209;SDS011;67485;48.816;9.930;2023-12-20T15:41:52;5.85;;;1.17;;
78209;SDS011;67485;48.816;9.930;2023-12-20T15:44:17;3.90;;;1.10;;
78209;SDS011;67485;48.816;9.930;2023-12-20T15:46:43;5.30;;;1.20;;
78209;SDS011;67485;48.816;9.930;2023-12-20T15:49:10;2.85;;;1.27;;
78209;SDS011;67485;48.816;9.930;2023-12-20T15:51:39;3.42;;;1.15;;
78209;SDS011;67485;48.816;9.930;2023-12-20T15:54:05;8.00;;;2.13;;
78209;SDS011;67485;48.816;9.930;2023-12-20T15:56:34;8.90;;;2.10;;
78209;SDS011;67485;48.816;9.930;2023-12-20T15:58:59;8.60;;;2.00;;
78209;SDS011;67485;48.816;9.930;2023-12-20T16:01:26;9.20;;;1.33;;